Terminal Aerodrome Forecast
Issued by NWS Grand Forks, ND

Home | Current Version | Previous Version | Graphics & Text | Print | Product List | Glossary On
Versions: 1 2 3 4 5 6 7 8 9 10 11 12 13 14 15 16 17 18
000
FTUS43 KFGF 280520
TAFFAR
TAF
KFAR 280520Z 2806/2906 33011KT P6SM BKN250
     FM280700 33009KT P6SM SCT250
     FM281800 34015G23KT P6SM BKN080
     FM290000 33006KT P6SM SCT250=

USA.gov is the U.S. government's official web portal to all federal, state and local government web resources and services.